P/v Golden Gate — WDE5665 — position and weather

sailwx.info

Track history (hours):
 
Tides and Currents Weather Stations Pressure Air Temp Water Temp Dewpoint Dewpoint Depression Visibility Wind Speed Wind Dir Waves Ship Positions

P/v Golden Gate

Owner: San Francisco Bar Pilots Benevolent and Protective, San Francisco, CA. More information available from US FCC via Universal Licensing System and Coast Guard Vessel Documentation Center.

Last reported at 2015-Apr-27 20:08 UTC. Time now 2015-Apr-27 20:40 UTC.
Position N 37°49' W 122°25'.

Length 23 m; draft 2 m.

Type: Pilot. MMSI: 367370010.

Date/timePositionNaut miles runAvg speedWind from/ knotsBaromVisibWave heightAir tempDewpointWater temp
2015-Apr-27 20:08N 37°49' W 122°25'4 7.4
2015-Apr-27 19:33N 37°48' W 122°20'1514.6
2015-Apr-27 18:33N 37°46' W 122°38'1211.3
2015-Apr-27 17:33N 37°48' W 122°24'0 0.0
2015-Apr-27 16:33N 37°48' W 122°24'0 0.0
2015-Apr-27 15:33N 37°48' W 122°24'0 0.0
2015-Apr-27 14:23N 37°48' W 122°24'3 3.5
2015-Apr-27 13:33N 37°49' W 122°20'3 2.9
2015-Apr-27 12:33N 37°48' W 122°24'0 0.0
2015-Apr-27 11:32N 37°48' W 122°24'0 0.0
2015-Apr-27 08:33N 37°48' W 122°24'0 0.0
2015-Apr-27 07:33N 37°48' W 122°24'0 0.0
2015-Apr-27 06:33N 37°48' W 122°24'0 0.0
2015-Apr-27 05:32N 37°48' W 122°24'0 0.1
2015-Apr-27 04:33N 37°48' W 122°24'0 0.0
2015-Apr-27 03:33N 37°48' W 122°24'0 0.0
2015-Apr-27 02:33N 37°48' W 122°24'4 3.6
2015-Apr-27 01:33N 37°45' W 122°22'4 3.6
2015-Apr-27 00:33N 37°48' W 122°24'1 1.2
2015-Apr-26 23:33N 37°49' W 122°23'1 1.2
2015-Apr-26 22:33N 37°48' W 122°24'5 4.7
2015-Apr-26 21:33N 37°53' W 122°25'7 6.7
2015-Apr-26 20:34N 37°48' W 122°19'3 3.5
2015-Apr-26 19:34N 37°49' W 122°24'4 3.6
2015-Apr-26 18:33N 37°46' W 122°21'3 3.3
2015-Apr-26 17:33N 37°48' W 122°24'0 0.0
2015-Apr-26 16:33N 37°48' W 122°24'4 3.7
2015-Apr-26 15:33N 37°46' W 122°20'2 2.4
2015-Apr-26 14:33N 37°48' W 122°20'1 1.1
2015-Apr-26 13:33N 37°48' W 122°18'4 4.3
2015-Apr-26 12:32N 37°48' W 122°24'1 0.8
2015-Apr-26 11:34N 37°49' W 122°24'1 0.8
2015-Apr-26 10:33N 37°48' W 122°24'0 0.0
2015-Apr-26 09:33N 37°48' W 122°24'0 0.0
2015-Apr-26 08:33N 37°48' W 122°24'0 0.0
2015-Apr-26 07:33N 37°48' W 122°24'0 0.0
2015-Apr-26 06:33N 37°48' W 122°24'0 0.0
2015-Apr-26 05:33N 37°48' W 122°24'0 0.0
2015-Apr-26 04:33N 37°48' W 122°24'0 0.0
2015-Apr-26 03:33N 37°48' W 122°24'0 0.0
2015-Apr-26 02:33N 37°48' W 122°24'0 0.0
2015-Apr-26 01:33N 37°48' W 122°24'0 0.0
2015-Apr-26 00:33N 37°48' W 122°24'1 1.1
2015-Apr-25 23:33N 37°47' W 122°23'1 1.0
2015-Apr-25 22:33N 37°48' W 122°24'0 0.0
2015-Apr-25 21:33N 37°48' W 122°24'0 0.0
2015-Apr-25 20:33N 37°48' W 122°24'3 3.3
2015-Apr-25 19:33N 37°49' W 122°20'3 3.2
2015-Apr-25 18:33N 37°48' W 122°24'0 0.1
2015-Apr-25 17:33N 37°48' W 122°24'0 0.0
2015-Apr-25 16:33N 37°48' W 122°24'1 0.8
2015-Apr-25 15:05N 37°49' W 122°25'4 8.4
2015-Apr-25 14:33N 37°46' W 122°21'2 2.1
2015-Apr-25 13:33N 37°44' W 122°20'5 5.2
2015-Apr-25 12:34N 37°48' W 122°24'3 2.6
2015-Apr-25 11:32N 37°49' W 122°27'3 2.7
2015-Apr-25 10:34N 37°48' W 122°24'0 0.0
2015-Apr-25 09:32N 37°48' W 122°24'0 0.0
2015-Apr-25 08:33N 37°48' W 122°24'0 0.4
2015-Apr-25 07:33N 37°48' W 122°24'0 0.4
2015-Apr-25 06:33N 37°48' W 122°24'0 0.0
2015-Apr-25 05:28N 37°48' W 122°24'0 0.0
2015-Apr-25 04:32N 37°48' W 122°24'0 0.0
2015-Apr-25 03:32N 37°48' W 122°24'3 3.5
2015-Apr-25 02:33N 37°46' W 122°20'3 3.4
2015-Apr-25 01:34N 37°48' W 122°24'0 0.0
2015-Apr-25 00:33N 37°48' W 122°24'1 1.3
2015-Apr-24 23:33N 37°49' W 122°25'5 5.1
2015-Apr-24 22:33N 37°45' W 122°21'4 3.8
2015-Apr-24 21:33N 37°48' W 122°24'7 6.7
2015-Apr-24 20:33N 37°55' W 122°22'2 1.7
2015-Apr-24 19:33N 37°54' W 122°24'2 1.1
2015-Apr-24 18:06N 37°55' W 122°22'0 0.0
2015-Apr-24 17:33N 37°55' W 122°22'0 0.0
2015-Apr-24 16:32N 37°55' W 122°22'0 0.0
2015-Apr-24 15:33N 37°55' W 122°22'0 0.0
2015-Apr-24 14:31N 37°55' W 122°22'0 0.0
2015-Apr-24 13:33N 37°55' W 122°22'0 0.0
2015-Apr-24 12:30N 37°55' W 122°22'0 0.0
2015-Apr-24 11:33N 37°55' W 122°22'0 0.0
2015-Apr-24 10:33N 37°55' W 122°22'0 0.0
2015-Apr-24 09:33N 37°55' W 122°22'0 0.0
2015-Apr-24 08:33N 37°55' W 122°22'0 0.0
2015-Apr-24 07:33N 37°55' W 122°22'0 0.0
2015-Apr-24 06:33N 37°55' W 122°22'0 0.0
2015-Apr-24 05:30N 37°55' W 122°22'0 0.0
2015-Apr-24 04:32N 37°55' W 122°22'0 0.0
2015-Apr-24 03:32N 37°55' W 122°22'0 0.0
2015-Apr-24 02:27N 37°55' W 122°22'0 0.0
2015-Apr-24 01:31N 37°55' W 122°22'0 0.0
2015-Apr-24 00:33N 37°55' W 122°22'0 0.0
2015-Apr-23 23:33N 37°55' W 122°22'0 0.0
2015-Apr-23 22:33N 37°55' W 122°22'0 0.0
2015-Apr-23 21:14N 37°55' W 122°22'0 0.0
2015-Apr-23 20:10N 37°55' W 122°22'0 0.0
2015-Apr-23 19:24N 37°55' W 122°22'0 0.0
2015-Apr-23 18:33N 37°55' W 122°22'0 0.0
2015-Apr-23 17:33N 37°55' W 122°22'0 0.0
2015-Apr-23 16:33N 37°55' W 122°22'0 0.0
2015-Apr-23 15:33N 37°55' W 122°22'0 0.0
2015-Apr-23 14:33N 37°55' W 122°22'0 0.0
2015-Apr-23 13:33N 37°55' W 122°22'0 0.0
2015-Apr-23 12:33N 37°55' W 122°22'0 0.0
2015-Apr-23 11:24N 37°55' W 122°22'0 0.0
2015-Apr-23 09:31N 37°55' W 122°22'0 0.0
2015-Apr-23 08:33N 37°55' W 122°22'0 0.0
2015-Apr-23 07:33N 37°55' W 122°22'0 0.0
2015-Apr-23 06:33N 37°55' W 122°22'0 0.0
2015-Apr-23 05:33N 37°55' W 122°22'0 0.0
2015-Apr-23 04:33N 37°55' W 122°22'0 0.0
2015-Apr-23 03:33N 37°55' W 122°22'0 0.0
2015-Apr-23 02:33N 37°55' W 122°22'0 0.0
2015-Apr-23 01:33N 37°55' W 122°22'0 0.0
2015-Apr-23 00:33N 37°55' W 122°22'0 0.0
2015-Apr-22 23:33N 37°55' W 122°22'0 0.0
2015-Apr-22 22:33N 37°55' W 122°22'0 0.0
2015-Apr-22 21:33N 37°55' W 122°22'0 0.0
2015-Apr-22 20:33N 37°55' W 122°22'0 0.0
2015-Apr-22 19:33N 37°55' W 122°22'0 0.0
2015-Apr-22 18:33N 37°55' W 122°22'0 0.0
2015-Apr-22 17:33N 37°55' W 122°22'0 0.0
2015-Apr-22 16:33N 37°55' W 122°22'0 0.0
2015-Apr-22 15:33N 37°55' W 122°22'0 0.0
2015-Apr-22 14:33N 37°55' W 122°22'0 0.0
2015-Apr-22 13:33N 37°55' W 122°22'0 0.0
2015-Apr-22 12:33N 37°55' W 122°22'0 0.0
2015-Apr-22 11:33N 37°55' W 122°22'0 0.0
2015-Apr-22 10:33N 37°55' W 122°22'0 0.0
2015-Apr-22 09:33N 37°55' W 122°22'0 0.0
2015-Apr-22 08:33N 37°55' W 122°22'0 0.0
2015-Apr-22 07:33N 37°55' W 122°22'0 0.0
2015-Apr-22 06:33N 37°55' W 122°22'0 0.0
2015-Apr-22 05:33N 37°55' W 122°22'0 0.0
2015-Apr-22 04:33N 37°55' W 122°22'0 0.0
2015-Apr-22 03:33N 37°55' W 122°22'0 0.0
2015-Apr-22 02:32N 37°55' W 122°22'0 0.0
2015-Apr-22 01:32N 37°55' W 122°22'0 0.0
2015-Apr-22 00:33N 37°55' W 122°22'0 0.0
2015-Apr-21 23:33N 37°55' W 122°22'0 0.0
2015-Apr-21 22:33N 37°55' W 122°22'0 0.0
2015-Apr-21 21:33N 37°55' W 122°22'0 0.0
2015-Apr-21 20:28N 37°55' W 122°22'0 0.0
2015-Apr-21 19:33N 37°55' W 122°22'0 0.0
2015-Apr-21 18:33N 37°55' W 122°22'0 0.0
2015-Apr-21 17:33N 37°55' W 122°22'0 0.0
2015-Apr-21 16:33N 37°55' W 122°22'0 0.0
2015-Apr-21 15:33N 37°55' W 122°22'0 0.0
2015-Apr-21 14:33N 37°55' W 122°22'0 0.0
2015-Apr-21 13:33N 37°55' W 122°22'0 0.0
2015-Apr-21 12:33N 37°55' W 122°22'0 0.0
2015-Apr-21 11:33N 37°55' W 122°22'0 0.0
2015-Apr-21 10:33N 37°55' W 122°22'0 0.0
2015-Apr-21 09:33N 37°55' W 122°22'0 0.0
2015-Apr-21 08:33N 37°55' W 122°22'0 0.0
2015-Apr-21 07:33N 37°55' W 122°22'0 0.0
2015-Apr-21 06:33N 37°55' W 122°22'0 0.0
2015-Apr-21 05:33N 37°55' W 122°22'0 0.0
2015-Apr-21 04:33N 37°55' W 122°22'0 0.0
2015-Apr-21 03:33N 37°55' W 122°22'0 0.0
2015-Apr-21 02:33N 37°55' W 122°22'0 0.0
2015-Apr-21 01:33N 37°55' W 122°22'0 0.0
2015-Apr-21 00:33N 37°55' W 122°22'0 0.0
2015-Apr-20 23:33N 37°55' W 122°22'0 0.0
2015-Apr-20 22:33N 37°55' W 122°22'0 0.0
2015-Apr-20 21:33N 37°55' W 122°22'0 0.0
2015-Apr-20 20:33N 37°55' W 122°22'0 0.0
2015-Apr-20 19:33N 37°55' W 122°22'0 0.0
2015-Apr-20 18:33N 37°55' W 122°22'0 0.0
2015-Apr-20 17:33N 37°55' W 122°22'0 0.0
2015-Apr-20 16:33N 37°55' W 122°22'0 0.0
2015-Apr-20 15:33N 37°55' W 122°22'0 0.0
2015-Apr-20 14:33N 37°55' W 122°22'0 0.0
2015-Apr-20 13:33N 37°55' W 122°22'0 0.0
2015-Apr-20 12:33N 37°55' W 122°22'0 0.0
2015-Apr-20 11:33N 37°55' W 122°22'0 0.0
2015-Apr-20 10:33N 37°55' W 122°22'0 0.0
2015-Apr-20 09:33N 37°55' W 122°22'0 0.0
2015-Apr-20 08:33N 37°55' W 122°22'0 0.0
2015-Apr-20 07:33N 37°55' W 122°22'0 0.0
2015-Apr-20 06:33N 37°55' W 122°22'0 0.0
2015-Apr-20 05:33N 37°55' W 122°22'0 0.0
2015-Apr-20 04:33N 37°55' W 122°22'0 0.0
2015-Apr-20 03:33N 37°55' W 122°22'0 0.0
2015-Apr-20 02:33N 37°55' W 122°22'0 0.0
2015-Apr-20 01:33N 37°55' W 122°22'0 0.0
2015-Apr-20 00:33N 37°55' W 122°22'0 0.0
2015-Apr-19 23:33N 37°55' W 122°22'0 0.0
2015-Apr-19 22:33N 37°55' W 122°22'0 0.0
2015-Apr-19 21:33N 37°55' W 122°22'0 0.0
2015-Apr-19 20:33N 37°55' W 122°22'0 0.0
2015-Apr-19 19:33N 37°55' W 122°22'0 0.0
2015-Apr-19 18:33N 37°55' W 122°22'0 0.0
2015-Apr-19 17:33N 37°55' W 122°22'0 0.0
2015-Apr-19 16:33N 37°55' W 122°22'0 0.0
2015-Apr-19 15:33N 37°55' W 122°22'0 0.0
2015-Apr-19 14:33N 37°55' W 122°22'0 0.0
2015-Apr-19 13:33N 37°55' W 122°22'0 0.0
2015-Apr-19 12:33N 37°55' W 122°22'0 0.0
2015-Apr-19 11:33N 37°55' W 122°22'0 0.0
2015-Apr-19 10:33N 37°55' W 122°22'0 0.0
2015-Apr-19 09:33N 37°55' W 122°22'0 0.0
2015-Apr-19 08:33N 37°55' W 122°22'0 0.0
2015-Apr-19 07:33N 37°55' W 122°22'0 0.0
2015-Apr-19 06:33N 37°55' W 122°22'0 0.0
2015-Apr-19 05:33N 37°55' W 122°22'0 0.0
2015-Apr-19 04:33N 37°55' W 122°22'0 0.0
2015-Apr-19 03:33N 37°55' W 122°22'0 0.0
2015-Apr-19 02:33N 37°55' W 122°22'0 0.0
2015-Apr-19 01:33N 37°55' W 122°22'0 0.0
2015-Apr-19 00:33N 37°55' W 122°22'0 0.0
2015-Apr-18 23:33N 37°55' W 122°22'0 0.0
2015-Apr-18 22:33N 37°55' W 122°22'0 0.0
2015-Apr-18 21:33N 37°55' W 122°22'0 0.0
2015-Apr-18 20:33N 37°55' W 122°22'0 0.0
2015-Apr-18 19:33N 37°55' W 122°22'0 0.0
2015-Apr-18 18:33N 37°55' W 122°22'0 0.0
2015-Apr-18 17:33N 37°55' W 122°22'0 0.0
2015-Apr-18 16:33N 37°55' W 122°22'0 0.0
2015-Apr-18 15:33N 37°55' W 122°22'0 0.0
2015-Apr-18 14:33N 37°55' W 122°22'0 0.0
2015-Apr-18 13:33N 37°55' W 122°22'0 0.0
2015-Apr-18 12:33N 37°55' W 122°22'0 0.0
2015-Apr-18 11:33N 37°55' W 122°22'0 0.0
2015-Apr-18 10:33N 37°55' W 122°22'0 0.0
2015-Apr-18 09:33N 37°55' W 122°22'0 0.0
2015-Apr-18 08:33N 37°55' W 122°22'0 0.0
2015-Apr-18 07:33N 37°55' W 122°22'0 0.0
2015-Apr-18 06:33N 37°55' W 122°22'0 0.0
2015-Apr-18 05:33N 37°55' W 122°22'0 0.0
2015-Apr-18 04:33N 37°55' W 122°22'0 0.0
2015-Apr-18 03:33N 37°55' W 122°22'0 0.0
2015-Apr-18 02:33N 37°55' W 122°22'0 0.0
2015-Apr-18 01:33N 37°55' W 122°22'0 0.0
2015-Apr-18 00:33N 37°55' W 122°22'0 0.0
2015-Apr-17 23:33N 37°55' W 122°22'0 0.0
2015-Apr-17 22:33N 37°55' W 122°22'0 0.0
2015-Apr-17 21:33N 37°55' W 122°22'0 0.0
2015-Apr-17 20:33N 37°55' W 122°22'  
Track history (hours):
 
Tides and Currents Weather Stations Pressure Air Temp Water Temp Dewpoint Dewpoint Depression Visibility Wind Speed Wind Dir Waves Ship Positions

P/v Golden Gate

Owner: San Francisco Bar Pilots Benevolent and Protective, San Francisco, CA. More information available from US FCC via Universal Licensing System and Coast Guard Vessel Documentation Center.

Last reported at 2015-Apr-27 20:08 UTC. Time now 2015-Apr-27 20:40 UTC.
Position N 37°49' W 122°25'.

Length 23 m; draft 2 m.

Type: Pilot. MMSI: 367370010.

Date/timePositionNaut miles runAvg speedWind from/ knotsBaromVisibWave heightAir tempDewpointWater temp
2015-Apr-27 20:08N 37°49' W 122°25'4 7.4
2015-Apr-27 19:33N 37°48' W 122°20'1514.6
2015-Apr-27 18:33N 37°46' W 122°38'1211.3
2015-Apr-27 17:33N 37°48' W 122°24'0 0.0
2015-Apr-27 16:33N 37°48' W 122°24'0 0.0
2015-Apr-27 15:33N 37°48' W 122°24'0 0.0
2015-Apr-27 14:23N 37°48' W 122°24'3 3.5
2015-Apr-27 13:33N 37°49' W 122°20'3 2.9
2015-Apr-27 12:33N 37°48' W 122°24'0 0.0
2015-Apr-27 11:32N 37°48' W 122°24'0 0.0
2015-Apr-27 08:33N 37°48' W 122°24'0 0.0
2015-Apr-27 07:33N 37°48' W 122°24'0 0.0
2015-Apr-27 06:33N 37°48' W 122°24'0 0.0
2015-Apr-27 05:32N 37°48' W 122°24'0 0.1
2015-Apr-27 04:33N 37°48' W 122°24'0 0.0
2015-Apr-27 03:33N 37°48' W 122°24'0 0.0
2015-Apr-27 02:33N 37°48' W 122°24'4 3.6
2015-Apr-27 01:33N 37°45' W 122°22'4 3.6
2015-Apr-27 00:33N 37°48' W 122°24'1 1.2
2015-Apr-26 23:33N 37°49' W 122°23'1 1.2
2015-Apr-26 22:33N 37°48' W 122°24'5 4.7
2015-Apr-26 21:33N 37°53' W 122°25'7 6.7
2015-Apr-26 20:34N 37°48' W 122°19'3 3.5
2015-Apr-26 19:34N 37°49' W 122°24'4 3.6
2015-Apr-26 18:33N 37°46' W 122°21'3 3.3
2015-Apr-26 17:33N 37°48' W 122°24'0 0.0
2015-Apr-26 16:33N 37°48' W 122°24'4 3.7
2015-Apr-26 15:33N 37°46' W 122°20'2 2.4
2015-Apr-26 14:33N 37°48' W 122°20'1 1.1
2015-Apr-26 13:33N 37°48' W 122°18'4 4.3
2015-Apr-26 12:32N 37°48' W 122°24'1 0.8
2015-Apr-26 11:34N 37°49' W 122°24'1 0.8
2015-Apr-26 10:33N 37°48' W 122°24'0 0.0
2015-Apr-26 09:33N 37°48' W 122°24'0 0.0
2015-Apr-26 08:33N 37°48' W 122°24'0 0.0
2015-Apr-26 07:33N 37°48' W 122°24'0 0.0
2015-Apr-26 06:33N 37°48' W 122°24'0 0.0
2015-Apr-26 05:33N 37°48' W 122°24'0 0.0
2015-Apr-26 04:33N 37°48' W 122°24'0 0.0
2015-Apr-26 03:33N 37°48' W 122°24'0 0.0
2015-Apr-26 02:33N 37°48' W 122°24'0 0.0
2015-Apr-26 01:33N 37°48' W 122°24'0 0.0
2015-Apr-26 00:33N 37°48' W 122°24'1 1.1
2015-Apr-25 23:33N 37°47' W 122°23'1 1.0
2015-Apr-25 22:33N 37°48' W 122°24'0 0.0
2015-Apr-25 21:33N 37°48' W 122°24'0 0.0
2015-Apr-25 20:33N 37°48' W 122°24'3 3.3
2015-Apr-25 19:33N 37°49' W 122°20'3 3.2
2015-Apr-25 18:33N 37°48' W 122°24'0 0.1
2015-Apr-25 17:33N 37°48' W 122°24'0 0.0
2015-Apr-25 16:33N 37°48' W 122°24'1 0.8
2015-Apr-25 15:05N 37°49' W 122°25'4 8.4
2015-Apr-25 14:33N 37°46' W 122°21'2 2.1
2015-Apr-25 13:33N 37°44' W 122°20'5 5.2
2015-Apr-25 12:34N 37°48' W 122°24'3 2.6
2015-Apr-25 11:32N 37°49' W 122°27'3 2.7
2015-Apr-25 10:34N 37°48' W 122°24'0 0.0
2015-Apr-25 09:32N 37°48' W 122°24'0 0.0
2015-Apr-25 08:33N 37°48' W 122°24'0 0.4
2015-Apr-25 07:33N 37°48' W 122°24'0 0.4
2015-Apr-25 06:33N 37°48' W 122°24'0 0.0
2015-Apr-25 05:28N 37°48' W 122°24'0 0.0
2015-Apr-25 04:32N 37°48' W 122°24'0 0.0
2015-Apr-25 03:32N 37°48' W 122°24'3 3.5
2015-Apr-25 02:33N 37°46' W 122°20'3 3.4
2015-Apr-25 01:34N 37°48' W 122°24'0 0.0
2015-Apr-25 00:33N 37°48' W 122°24'1 1.3
2015-Apr-24 23:33N 37°49' W 122°25'5 5.1
2015-Apr-24 22:33N 37°45' W 122°21'4 3.8
2015-Apr-24 21:33N 37°48' W 122°24'7 6.7
2015-Apr-24 20:33N 37°55' W 122°22'2 1.7
2015-Apr-24 19:33N 37°54' W 122°24'2 1.1
2015-Apr-24 18:06N 37°55' W 122°22'0 0.0
2015-Apr-24 17:33N 37°55' W 122°22'0 0.0
2015-Apr-24 16:32N 37°55' W 122°22'0 0.0
2015-Apr-24 15:33N 37°55' W 122°22'0 0.0
2015-Apr-24 14:31N 37°55' W 122°22'0 0.0
2015-Apr-24 13:33N 37°55' W 122°22'0 0.0
2015-Apr-24 12:30N 37°55' W 122°22'0 0.0
2015-Apr-24 11:33N 37°55' W 122°22'0 0.0
2015-Apr-24 10:33N 37°55' W 122°22'0 0.0
2015-Apr-24 09:33N 37°55' W 122°22'0 0.0
2015-Apr-24 08:33N 37°55' W 122°22'0 0.0
2015-Apr-24 07:33N 37°55' W 122°22'0 0.0
2015-Apr-24 06:33N 37°55' W 122°22'0 0.0
2015-Apr-24 05:30N 37°55' W 122°22'0 0.0
2015-Apr-24 04:32N 37°55' W 122°22'0 0.0
2015-Apr-24 03:32N 37°55' W 122°22'0 0.0
2015-Apr-24 02:27N 37°55' W 122°22'0 0.0
2015-Apr-24 01:31N 37°55' W 122°22'0 0.0
2015-Apr-24 00:33N 37°55' W 122°22'0 0.0
2015-Apr-23 23:33N 37°55' W 122°22'0 0.0
2015-Apr-23 22:33N 37°55' W 122°22'0 0.0
2015-Apr-23 21:14N 37°55' W 122°22'0 0.0
2015-Apr-23 20:10N 37°55' W 122°22'0 0.0
2015-Apr-23 19:24N 37°55' W 122°22'0 0.0
2015-Apr-23 18:33N 37°55' W 122°22'0 0.0
2015-Apr-23 17:33N 37°55' W 122°22'0 0.0
2015-Apr-23 16:33N 37°55' W 122°22'0 0.0
2015-Apr-23 15:33N 37°55' W 122°22'0 0.0
2015-Apr-23 14:33N 37°55' W 122°22'0 0.0
2015-Apr-23 13:33N 37°55' W 122°22'0 0.0
2015-Apr-23 12:33N 37°55' W 122°22'0 0.0
2015-Apr-23 11:24N 37°55' W 122°22'0 0.0
2015-Apr-23 09:31N 37°55' W 122°22'0 0.0
2015-Apr-23 08:33N 37°55' W 122°22'0 0.0
2015-Apr-23 07:33N 37°55' W 122°22'0 0.0
2015-Apr-23 06:33N 37°55' W 122°22'0 0.0
2015-Apr-23 05:33N 37°55' W 122°22'0 0.0
2015-Apr-23 04:33N 37°55' W 122°22'0 0.0
2015-Apr-23 03:33N 37°55' W 122°22'0 0.0
2015-Apr-23 02:33N 37°55' W 122°22'0 0.0
2015-Apr-23 01:33N 37°55' W 122°22'0 0.0
2015-Apr-23 00:33N 37°55' W 122°22'0 0.0
2015-Apr-22 23:33N 37°55' W 122°22'0 0.0
2015-Apr-22 22:33N 37°55' W 122°22'0 0.0
2015-Apr-22 21:33N 37°55' W 122°22'0 0.0
2015-Apr-22 20:33N 37°55' W 122°22'0 0.0
2015-Apr-22 19:33N 37°55' W 122°22'0 0.0
2015-Apr-22 18:33N 37°55' W 122°22'0 0.0
2015-Apr-22 17:33N 37°55' W 122°22'0 0.0
2015-Apr-22 16:33N 37°55' W 122°22'0 0.0
2015-Apr-22 15:33N 37°55' W 122°22'0 0.0
2015-Apr-22 14:33N 37°55' W 122°22'0 0.0
2015-Apr-22 13:33N 37°55' W 122°22'0 0.0
2015-Apr-22 12:33N 37°55' W 122°22'0 0.0
2015-Apr-22 11:33N 37°55' W 122°22'0 0.0
2015-Apr-22 10:33N 37°55' W 122°22'0 0.0
2015-Apr-22 09:33N 37°55' W 122°22'0 0.0
2015-Apr-22 08:33N 37°55' W 122°22'0 0.0
2015-Apr-22 07:33N 37°55' W 122°22'0 0.0
2015-Apr-22 06:33N 37°55' W 122°22'0 0.0
2015-Apr-22 05:33N 37°55' W 122°22'0 0.0
2015-Apr-22 04:33N 37°55' W 122°22'0 0.0
2015-Apr-22 03:33N 37°55' W 122°22'0 0.0
2015-Apr-22 02:32N 37°55' W 122°22'0 0.0
2015-Apr-22 01:32N 37°55' W 122°22'0 0.0
2015-Apr-22 00:33N 37°55' W 122°22'0 0.0
2015-Apr-21 23:33N 37°55' W 122°22'0 0.0
2015-Apr-21 22:33N 37°55' W 122°22'0 0.0
2015-Apr-21 21:33N 37°55' W 122°22'0 0.0
2015-Apr-21 20:28N 37°55' W 122°22'0 0.0
2015-Apr-21 19:33N 37°55' W 122°22'0 0.0
2015-Apr-21 18:33N 37°55' W 122°22'0 0.0
2015-Apr-21 17:33N 37°55' W 122°22'0 0.0
2015-Apr-21 16:33N 37°55' W 122°22'0 0.0
2015-Apr-21 15:33N 37°55' W 122°22'0 0.0
2015-Apr-21 14:33N 37°55' W 122°22'0 0.0
2015-Apr-21 13:33N 37°55' W 122°22'0 0.0
2015-Apr-21 12:33N 37°55' W 122°22'0 0.0
2015-Apr-21 11:33N 37°55' W 122°22'0 0.0
2015-Apr-21 10:33N 37°55' W 122°22'0 0.0
2015-Apr-21 09:33N 37°55' W 122°22'0 0.0
2015-Apr-21 08:33N 37°55' W 122°22'0 0.0
2015-Apr-21 07:33N 37°55' W 122°22'0 0.0
2015-Apr-21 06:33N 37°55' W 122°22'0 0.0
2015-Apr-21 05:33N 37°55' W 122°22'0 0.0
2015-Apr-21 04:33N 37°55' W 122°22'0 0.0
2015-Apr-21 03:33N 37°55' W 122°22'0 0.0
2015-Apr-21 02:33N 37°55' W 122°22'0 0.0
2015-Apr-21 01:33N 37°55' W 122°22'0 0.0
2015-Apr-21 00:33N 37°55' W 122°22'0 0.0
2015-Apr-20 23:33N 37°55' W 122°22'0 0.0
2015-Apr-20 22:33N 37°55' W 122°22'0 0.0
2015-Apr-20 21:33N 37°55' W 122°22'0 0.0
2015-Apr-20 20:33N 37°55' W 122°22'0 0.0
2015-Apr-20 19:33N 37°55' W 122°22'0 0.0
2015-Apr-20 18:33N 37°55' W 122°22'0 0.0
2015-Apr-20 17:33N 37°55' W 122°22'0 0.0
2015-Apr-20 16:33N 37°55' W 122°22'0 0.0
2015-Apr-20 15:33N 37°55' W 122°22'0 0.0
2015-Apr-20 14:33N 37°55' W 122°22'0 0.0
2015-Apr-20 13:33N 37°55' W 122°22'0 0.0
2015-Apr-20 12:33N 37°55' W 122°22'0 0.0
2015-Apr-20 11:33N 37°55' W 122°22'0 0.0
2015-Apr-20 10:33N 37°55' W 122°22'0 0.0
2015-Apr-20 09:33N 37°55' W 122°22'0 0.0
2015-Apr-20 08:33N 37°55' W 122°22'0 0.0
2015-Apr-20 07:33N 37°55' W 122°22'0 0.0
2015-Apr-20 06:33N 37°55' W 122°22'0 0.0
2015-Apr-20 05:33N 37°55' W 122°22'0 0.0
2015-Apr-20 04:33N 37°55' W 122°22'0 0.0
2015-Apr-20 03:33N 37°55' W 122°22'0 0.0
2015-Apr-20 02:33N 37°55' W 122°22'0 0.0
2015-Apr-20 01:33N 37°55' W 122°22'0 0.0
2015-Apr-20 00:33N 37°55' W 122°22'0 0.0
2015-Apr-19 23:33N 37°55' W 122°22'0 0.0
2015-Apr-19 22:33N 37°55' W 122°22'0 0.0
2015-Apr-19 21:33N 37°55' W 122°22'0 0.0
2015-Apr-19 20:33N 37°55' W 122°22'0 0.0
2015-Apr-19 19:33N 37°55' W 122°22'0 0.0
2015-Apr-19 18:33N 37°55' W 122°22'0 0.0
2015-Apr-19 17:33N 37°55' W 122°22'0 0.0
2015-Apr-19 16:33N 37°55' W 122°22'0 0.0
2015-Apr-19 15:33N 37°55' W 122°22'0 0.0
2015-Apr-19 14:33N 37°55' W 122°22'0 0.0
2015-Apr-19 13:33N 37°55' W 122°22'0 0.0
2015-Apr-19 12:33N 37°55' W 122°22'0 0.0
2015-Apr-19 11:33N 37°55' W 122°22'0 0.0
2015-Apr-19 10:33N 37°55' W 122°22'0 0.0
2015-Apr-19 09:33N 37°55' W 122°22'0 0.0
2015-Apr-19 08:33N 37°55' W 122°22'0 0.0
2015-Apr-19 07:33N 37°55' W 122°22'0 0.0
2015-Apr-19 06:33N 37°55' W 122°22'0 0.0
2015-Apr-19 05:33N 37°55' W 122°22'0 0.0
2015-Apr-19 04:33N 37°55' W 122°22'0 0.0
2015-Apr-19 03:33N 37°55' W 122°22'0 0.0
2015-Apr-19 02:33N 37°55' W 122°22'0 0.0
2015-Apr-19 01:33N 37°55' W 122°22'0 0.0
2015-Apr-19 00:33N 37°55' W 122°22'0 0.0
2015-Apr-18 23:33N 37°55' W 122°22'0 0.0
2015-Apr-18 22:33N 37°55' W 122°22'0 0.0
2015-Apr-18 21:33N 37°55' W 122°22'0 0.0
2015-Apr-18 20:33N 37°55' W 122°22'0 0.0
2015-Apr-18 19:33N 37°55' W 122°22'0 0.0
2015-Apr-18 18:33N 37°55' W 122°22'0 0.0
2015-Apr-18 17:33N 37°55' W 122°22'0 0.0
2015-Apr-18 16:33N 37°55' W 122°22'0 0.0
2015-Apr-18 15:33N 37°55' W 122°22'0 0.0
2015-Apr-18 14:33N 37°55' W 122°22'0 0.0
2015-Apr-18 13:33N 37°55' W 122°22'0 0.0
2015-Apr-18 12:33N 37°55' W 122°22'0 0.0
2015-Apr-18 11:33N 37°55' W 122°22'0 0.0
2015-Apr-18 10:33N 37°55' W 122°22'0 0.0
2015-Apr-18 09:33N 37°55' W 122°22'0 0.0
2015-Apr-18 08:33N 37°55' W 122°22'0 0.0
2015-Apr-18 07:33N 37°55' W 122°22'0 0.0
2015-Apr-18 06:33N 37°55' W 122°22'0 0.0
2015-Apr-18 05:33N 37°55' W 122°22'0 0.0
2015-Apr-18 04:33N 37°55' W 122°22'0 0.0
2015-Apr-18 03:33N 37°55' W 122°22'0 0.0
2015-Apr-18 02:33N 37°55' W 122°22'0 0.0
2015-Apr-18 01:33N 37°55' W 122°22'0 0.0
2015-Apr-18 00:33N 37°55' W 122°22'0 0.0
2015-Apr-17 23:33N 37°55' W 122°22'0 0.0
2015-Apr-17 22:33N 37°55' W 122°22'0 0.0
2015-Apr-17 21:33N 37°55' W 122°22'0 0.0
2015-Apr-17 20:33N 37°55' W 122°22'  

Dump ship's entire track history